createdAt,value
2017-01-05T00:00:36.956Z,0.66
2017-01-05T00:01:36.198Z,0.73
2017-01-05T00:02:37.084Z,0.8
2017-01-05T00:03:37.045Z,0.69
2017-01-05T00:04:36.567Z,0.74
2017-01-05T00:05:36.274Z,0.73
2017-01-05T00:06:36.238Z,0.7
2017-01-05T00:07:36.393Z,0.78
2017-01-05T00:08:37.035Z,0.81
2017-01-05T00:09:36.466Z,0.78
2017-01-05T00:10:36.880Z,0.73
2017-01-05T00:11:36.111Z,0.76
2017-01-05T00:12:36.752Z,0.69
2017-01-05T00:13:36.296Z,0.73
2017-01-05T00:14:36.023Z,0.63
2017-01-05T00:15:37.100Z,0.63
2017-01-05T00:16:37.009Z,0.59
2017-01-05T00:17:37.067Z,0.46
2017-01-05T00:18:36.881Z,0.43
2017-01-05T00:19:36.388Z,0.43
2017-01-05T00:20:37.094Z,0.44
2017-01-05T00:21:36.615Z,0.44
2017-01-05T00:22:36.986Z,0.43
2017-01-05T00:23:36.371Z,0.46
2017-01-05T00:24:36.655Z,0.44
2017-01-05T00:25:36.355Z,0.46
2017-01-05T00:26:36.389Z,0.47
2017-01-05T00:27:36.897Z,0.44
2017-01-05T00:28:36.745Z,0.46
2017-01-05T00:29:36.894Z,0.37
2017-01-05T00:30:37.133Z,0.32
2017-01-05T00:31:36.344Z,0.34
2017-01-05T00:32:37.316Z,0.28
2017-01-05T00:33:36.790Z,0.31
2017-01-05T00:34:36.766Z,0.25
2017-01-05T00:35:36.546Z,0.26
2017-01-05T00:36:37.897Z,0.16
2017-01-05T00:37:36.828Z,0.18
2017-01-05T00:38:36.709Z,0.21
2017-01-05T00:39:37.484Z,0.19
2017-01-05T00:40:36.209Z,0.15
2017-01-05T00:41:37.064Z,0.25
2017-01-05T00:42:36.952Z,0.22
2017-01-05T00:43:37.364Z,0.26
2017-01-05T00:44:37.198Z,0.18
2017-01-05T00:45:37.178Z,0.25
2017-01-05T00:46:36.692Z,0.04
2017-01-05T00:47:37.078Z,0.01
2017-01-05T00:48:36.445Z,0.21
2017-01-05T00:49:37.371Z,0.19
2017-01-05T00:50:37.105Z,0.18
2017-01-05T00:51:36.927Z,0.15
2017-01-05T00:52:36.558Z,0.31
2017-01-05T00:53:37.082Z,0.25
2017-01-05T00:54:36.829Z,0.34
2017-01-05T00:55:37.277Z,0.26
2017-01-05T00:56:36.828Z,0.32
2017-01-05T00:57:37.027Z,0.25
2017-01-05T00:58:37.008Z,0.26
2017-01-05T00:59:36.643Z,0.22
2017-01-05T01:00:36.665Z,0.43
2017-01-05T01:01:37.088Z,0.44
2017-01-05T01:02:37.251Z,0.49
2017-01-05T01:03:37.027Z,0.29
2017-01-05T01:04:37.318Z,0.32
2017-01-05T01:05:36.804Z,0.22
2017-01-05T01:06:37.772Z,0.18
2017-01-05T01:07:37.154Z,0.03
2017-01-05T01:08:37.470Z,0.01
2017-01-05T01:09:37.734Z,0
2017-01-05T01:10:37.212Z,-0.06
2017-01-05T01:11:36.753Z,-0.03
2017-01-05T01:12:37.109Z,-0.17
2017-01-05T01:13:37.475Z,-0.18
2017-01-05T01:14:36.970Z,-0.21
2017-01-05T01:15:37.789Z,-0.25
2017-01-05T01:16:37.368Z,-0.21
2017-01-05T01:17:37.841Z,-0.43
2017-01-05T01:18:37.613Z,-0.31
2017-01-05T01:19:36.912Z,-0.31
2017-01-05T01:20:37.035Z,-0.35
2017-01-05T01:21:38.202Z,-0.38
2017-01-05T01:22:37.640Z,-0.41
2017-01-05T01:23:37.677Z,-0.21
2017-01-05T01:24:37.170Z,-0.31
2017-01-05T01:25:37.282Z,-0.32
2017-01-05T01:26:38.719Z,-0.28
2017-01-05T01:27:37.586Z,-0.43
2017-01-05T01:28:37.290Z,-0.39
2017-01-05T01:29:37.053Z,-0.41
2017-01-05T01:30:37.174Z,-0.43
2017-01-05T01:31:37.992Z,-0.39
2017-01-05T01:32:37.806Z,-0.39
2017-01-05T01:33:37.252Z,-0.36
2017-01-05T01:34:39.327Z,-0.43
2017-01-05T01:35:37.268Z,-0.36
2017-01-05T01:36:37.987Z,-0.46
2017-01-05T01:37:37.952Z,-0.32
2017-01-05T01:38:37.568Z,-0.15
2017-01-05T01:39:37.140Z,-0.2
2017-01-05T01:40:37.374Z,-0.11
2017-01-05T01:41:37.936Z,-0.13
2017-01-05T01:42:38.416Z,-0.25
2017-01-05T01:43:37.500Z,-0.13
2017-01-05T01:44:37.889Z,-0.17
2017-01-05T01:45:37.352Z,-0.17
2017-01-05T01:46:37.631Z,-0.29
2017-01-05T01:47:37.200Z,-0.34
2017-01-05T01:48:37.982Z,-0.36
2017-01-05T01:49:37.841Z,-0.43
2017-01-05T01:50:37.229Z,-0.49
2017-01-05T01:51:37.799Z,-0.62
2017-01-05T01:52:37.772Z,-0.54
2017-01-05T01:53:37.421Z,-0.67
2017-01-05T01:54:37.844Z,-0.52
2017-01-05T01:55:38.365Z,-0.39
2017-01-05T01:56:37.253Z,-0.52
2017-01-05T01:57:37.528Z,-0.54
2017-01-05T01:58:37.724Z,-0.44
2017-01-05T01:59:37.537Z,-0.39
2017-01-05T02:00:38.136Z,-0.39
2017-01-05T02:01:37.484Z,-0.44
2017-01-05T02:02:38.090Z,-0.43
2017-01-05T02:03:37.299Z,-0.43
2017-01-05T02:04:37.859Z,-0.5
2017-01-05T02:05:37.418Z,-0.53
2017-01-05T02:06:38.271Z,-0.57
2017-01-05T02:07:38.106Z,-0.59
2017-01-05T02:08:38.153Z,-0.7
2017-01-05T02:09:37.965Z,-0.64
2017-01-05T02:10:38.098Z,-0.64
2017-01-05T02:11:37.598Z,-0.7
2017-01-05T02:12:38.171Z,-0.72
2017-01-05T02:13:38.333Z,-0.77
2017-01-05T02:14:37.695Z,-0.91
2017-01-05T02:15:37.468Z,-0.93
2017-01-05T02:16:37.763Z,-1.04
2017-01-05T02:17:37.990Z,-1.02
2017-01-05T02:18:39.074Z,-1.07
2017-01-05T02:19:38.855Z,-1.17
2017-01-05T02:20:37.607Z,-1.27
2017-01-05T02:21:38.181Z,-1.32
2017-01-05T02:22:38.349Z,-1.33
2017-01-05T02:23:37.815Z,-1.4
2017-01-05T02:24:38.715Z,-1.32
2017-01-05T02:25:38.260Z,-1.44
2017-01-05T02:26:38.108Z,-1.51
2017-01-05T02:27:37.668Z,-1.47
2017-01-05T02:28:38.232Z,-1.38
2017-01-05T02:29:38.045Z,-1.5
2017-01-05T02:30:37.757Z,-1.54
2017-01-05T02:31:38.058Z,-1.47
2017-01-05T02:32:38.486Z,-1.47
2017-01-05T02:33:37.920Z,-1.46
2017-01-05T02:34:38.696Z,-1.4
2017-01-05T02:35:38.163Z,-1.46
2017-01-05T02:36:38.819Z,-1.56
2017-01-05T02:37:38.026Z,-1.43
2017-01-05T02:38:38.067Z,-1.43
2017-01-05T02:39:37.623Z,-1.47
2017-01-05T02:40:38.311Z,-1.46
2017-01-05T02:41:37.731Z,-1.37
2017-01-05T02:42:37.839Z,-1.35
2017-01-05T02:43:38.816Z,-1.22
2017-01-05T02:44:38.623Z,-0.96
2017-01-05T02:45:38.316Z,-1.01
2017-01-05T02:46:38.617Z,-0.82
2017-01-05T02:47:37.998Z,-0.74
2017-01-05T02:48:38.219Z,-0.61
2017-01-05T02:49:37.970Z,-0.54
2017-01-05T02:50:38.021Z,-0.5
2017-01-05T02:51:38.441Z,-0.39
2017-01-05T02:52:37.852Z,-0.43
2017-01-05T02:53:38.357Z,-0.39
2017-01-05T02:54:38.978Z,-0.38
2017-01-05T02:55:38.244Z,-0.36
2017-01-05T02:56:38.573Z,-0.46
2017-01-05T02:57:38.004Z,-0.31
2017-01-05T02:58:38.008Z,-0.28
2017-01-05T02:59:38.098Z,-0.15
2017-01-05T03:00:38.225Z,-0.13
2017-01-05T03:01:38.764Z,-0.17
2017-01-05T03:02:38.280Z,-0.13
2017-01-05T03:03:39.369Z,0.01
2017-01-05T03:04:38.644Z,0.07
2017-01-05T03:05:38.223Z,0.16
2017-01-05T03:06:38.847Z,0.18
2017-01-05T03:07:38.729Z,0.18
2017-01-05T03:08:38.585Z,0.22
2017-01-05T03:09:38.403Z,0.12
2017-01-05T03:10:38.408Z,0.16
2017-01-05T03:11:38.203Z,0.28
2017-01-05T03:12:38.309Z,0.22
2017-01-05T03:13:38.301Z,0.29
2017-01-05T03:14:38.560Z,0.26
2017-01-05T03:15:38.296Z,0.23
2017-01-05T03:16:39.064Z,0.26
2017-01-05T03:17:38.786Z,0.23
2017-01-05T03:18:38.272Z,0.19
2017-01-05T03:19:38.386Z,0.21
2017-01-05T03:20:38.249Z,0.12
2017-01-05T03:21:38.541Z,0.15
2017-01-05T03:22:38.344Z,0.1
2017-01-05T03:23:38.625Z,0.22
2017-01-05T03:24:39.050Z,0.18
2017-01-05T03:25:38.640Z,0.18
2017-01-05T03:26:38.489Z,0.12
2017-01-05T03:27:38.850Z,0.19
2017-01-05T03:28:38.643Z,0.19
2017-01-05T03:29:38.548Z,0.12
2017-01-05T03:30:38.903Z,0.18
2017-01-05T03:31:38.981Z,0.19
2017-01-05T03:32:38.615Z,0.26
2017-01-05T03:33:38.341Z,0.23
2017-01-05T03:34:38.540Z,0.23
2017-01-05T03:35:38.582Z,0.32
2017-01-05T03:36:38.585Z,0.31
2017-01-05T03:37:38.667Z,0.15
2017-01-05T03:38:38.422Z,0.32
2017-01-05T03:39:38.562Z,0.32
2017-01-05T03:40:38.732Z,0.25
2017-01-05T03:41:38.978Z,0.22
2017-01-05T03:42:39.426Z,0.23
2017-01-05T03:43:38.623Z,0.32
2017-01-05T03:44:39.093Z,0.25
2017-01-05T03:45:39.317Z,0.25
2017-01-05T03:46:39.044Z,0.26
2017-01-05T03:47:39.119Z,0.28
2017-01-05T03:48:39.426Z,0.26
2017-01-05T03:49:38.726Z,0.28
2017-01-05T03:50:39.187Z,0.21
2017-01-05T03:51:38.697Z,0.29
2017-01-05T03:52:38.609Z,0.25
2017-01-05T03:53:38.987Z,0.23
2017-01-05T03:54:39.180Z,0.25
2017-01-05T03:55:39.513Z,0.16
2017-01-05T03:56:39.849Z,0.21
2017-01-05T03:57:38.953Z,0.18
2017-01-05T03:58:38.874Z,0.18
2017-01-05T03:59:39.248Z,0.12
2017-01-05T04:00:38.746Z,0.15
2017-01-05T04:01:39.746Z,0.18
2017-01-05T04:02:38.884Z,0.25
2017-01-05T04:03:38.897Z,0.22
2017-01-05T04:04:39.249Z,0.22
2017-01-05T04:05:39.643Z,0.22
2017-01-05T04:06:38.755Z,0.29
2017-01-05T04:07:38.841Z,0.23
2017-01-05T04:08:39.620Z,0.18
2017-01-05T04:09:39.710Z,0.15
2017-01-05T04:10:39.508Z,0.19
2017-01-05T04:11:39.560Z,0.11
2017-01-05T04:12:39.956Z,0.07
2017-01-05T04:13:39.620Z,0.1
2017-01-05T04:14:39.036Z,0.07
2017-01-05T04:15:39.755Z,0.03
2017-01-05T04:16:38.939Z,0.03
2017-01-05T04:17:39.056Z,-0.03
2017-01-05T04:18:39.451Z,0.03
2017-01-05T04:19:39.008Z,0.03
2017-01-05T04:20:39.824Z,0.03
2017-01-05T04:21:39.157Z,0.01
2017-01-05T04:22:39.079Z,-0.03
2017-01-05T04:23:39.346Z,-0.06
2017-01-05T04:24:39.461Z,-0.02
2017-01-05T04:25:39.438Z,0.03
2017-01-05T04:26:39.021Z,-0.02
2017-01-05T04:27:39.952Z,0.08
2017-01-05T04:28:39.398Z,0.15
2017-01-05T04:29:39.709Z,0.11
2017-01-05T04:30:39.085Z,0.04
2017-01-05T04:31:39.929Z,0.01
2017-01-05T04:32:39.906Z,0.04
2017-01-05T04:33:39.693Z,0.01
2017-01-05T04:34:39.521Z,-0.06
2017-01-05T04:35:39.349Z,-0.08
2017-01-05T04:36:39.655Z,-0.07
2017-01-05T04:37:39.758Z,-0.11
2017-01-05T04:38:39.725Z,-0.15
2017-01-05T04:39:39.379Z,-0.21
2017-01-05T04:40:39.785Z,-0.17
2017-01-05T04:41:39.190Z,-0.21
2017-01-05T04:42:39.277Z,-0.28
2017-01-05T04:43:39.217Z,-0.34
2017-01-05T04:44:39.579Z,-0.32
2017-01-05T04:45:39.856Z,-0.36
2017-01-05T04:46:39.824Z,-0.18
2017-01-05T04:47:39.173Z,-0.15
2017-01-05T04:48:39.790Z,-0.17
2017-01-05T04:49:39.288Z,-0.21
2017-01-05T04:50:39.863Z,-0.21
2017-01-05T04:51:39.357Z,-0.21
2017-01-05T04:52:39.742Z,-0.2
2017-01-05T04:53:40.097Z,-0.15
2017-01-05T04:54:39.866Z,-0.2
2017-01-05T04:55:39.667Z,-0.2
2017-01-05T04:56:39.742Z,-0.2
2017-01-05T04:57:40.451Z,-0.17
2017-01-05T04:58:39.392Z,-0.18
2017-01-05T04:59:39.581Z,-0.07
2017-01-05T05:00:40.232Z,-0.14
2017-01-05T05:01:40.260Z,-0.17
2017-01-05T05:02:39.770Z,-0.15
2017-01-05T05:03:39.609Z,-0.18
2017-01-05T05:04:39.708Z,-0.13
2017-01-05T05:05:40.194Z,-0.11
2017-01-05T05:06:39.992Z,-0.03
2017-01-05T05:07:39.543Z,-0.06
2017-01-05T05:08:40.121Z,-0.08
2017-01-05T05:09:40.599Z,-0.08
2017-01-05T05:10:40.523Z,-0.07
2017-01-05T05:11:40.073Z,-0.08
2017-01-05T05:12:41.472Z,-0.08
2017-01-05T05:13:40.303Z,-0.08
2017-01-05T05:14:41.513Z,-0.11
2017-01-05T05:15:41.622Z,-0.11
2017-01-05T05:16:41.877Z,-0.13
2017-01-05T05:17:41.060Z,-0.21
2017-01-05T05:18:40.993Z,-0.2
2017-01-05T05:19:40.252Z,-0.15
2017-01-05T05:20:40.989Z,-0.08
2017-01-05T05:21:40.673Z,-0.15
2017-01-05T05:22:41.667Z,-0.11
2017-01-05T05:23:40.868Z,-0.2
2017-01-05T05:24:40.292Z,-0.21
2017-01-05T05:25:41.357Z,-0.14
2017-01-05T05:26:41.496Z,-0.21
2017-01-05T05:27:41.185Z,-0.14
2017-01-05T05:28:40.361Z,-0.14
2017-01-05T05:29:41.009Z,-0.23
2017-01-05T05:30:40.476Z,-0.13
2017-01-05T05:31:41.375Z,-0.15
2017-01-05T05:32:40.456Z,-0.17
2017-01-05T05:33:41.308Z,-0.26
2017-01-05T05:34:41.297Z,-0.17
2017-01-05T05:35:40.083Z,-0.25
2017-01-05T05:36:40.403Z,-0.21
2017-01-05T05:37:41.873Z,-0.15
2017-01-05T05:38:41.942Z,-0.18
2017-01-05T05:39:41.196Z,-0.07
2017-01-05T05:40:41.355Z,-0.17
2017-01-05T05:41:41.440Z,-0.11
2017-01-05T05:42:40.833Z,-0.2
2017-01-05T05:43:41.218Z,-0.13
2017-01-05T05:44:41.527Z,-0.18
2017-01-05T05:45:42.728Z,-0.21
2017-01-05T05:46:40.812Z,-0.15
2017-01-05T05:47:41.357Z,-0.11
2017-01-05T05:48:43.169Z,-0.13
2017-01-05T05:49:41.325Z,-0.17
2017-01-05T05:50:41.235Z,-0.17
2017-01-05T05:51:41.352Z,-0.11
2017-01-05T05:52:42.315Z,-0.1
2017-01-05T05:53:41.820Z,-0.11
2017-01-05T05:54:42.639Z,-0.11
2017-01-05T05:55:40.883Z,-0.1
2017-01-05T05:56:41.176Z,-0.13
2017-01-05T05:57:41.086Z,-0.18
2017-01-05T05:58:41.505Z,-0.14
2017-01-05T05:59:41.211Z,-0.17
2017-01-05T06:00:40.874Z,-0.21
2017-01-05T06:01:40.727Z,-0.28
2017-01-05T06:02:41.724Z,-0.38
2017-01-05T06:03:41.725Z,-0.35
2017-01-05T06:04:41.043Z,-0.39
2017-01-05T06:05:41.089Z,-0.5
2017-01-05T06:06:40.549Z,-0.53
2017-01-05T06:07:40.912Z,-0.64
2017-01-05T06:08:41.615Z,-0.65
2017-01-05T06:09:42.748Z,-0.64
2017-01-05T06:10:40.850Z,-0.7
2017-01-05T06:11:40.819Z,-0.74
2017-01-05T06:12:40.838Z,-0.68
2017-01-05T06:13:41.577Z,-0.7
2017-01-05T06:14:41.825Z,-0.72
2017-01-05T06:15:42.004Z,-0.64
2017-01-05T06:16:41.725Z,-0.7
2017-01-05T06:17:40.816Z,-0.74
2017-01-05T06:18:41.824Z,-0.82
2017-01-05T06:19:40.657Z,-0.78
2017-01-05T06:20:40.558Z,-0.77
2017-01-05T06:21:41.101Z,-0.89
2017-01-05T06:22:40.506Z,-0.91
2017-01-05T06:23:40.813Z,-0.85
2017-01-05T06:24:41.355Z,-0.89
2017-01-05T06:25:40.351Z,-0.86
2017-01-05T06:26:40.965Z,-0.96
2017-01-05T06:27:41.447Z,-1.02
2017-01-05T06:28:41.256Z,-0.96
2017-01-05T06:29:42.180Z,-0.94
2017-01-05T06:30:40.904Z,-1.05
2017-01-05T06:31:40.572Z,-1.05
2017-01-05T06:32:42.045Z,-1.09
2017-01-05T06:33:40.670Z,-0.94
2017-01-05T06:34:41.886Z,-1.01
2017-01-05T06:35:41.282Z,-1.12
2017-01-05T06:36:40.724Z,-1.05
2017-01-05T06:37:41.000Z,-1.08
2017-01-05T06:38:40.657Z,-1.11
2017-01-05T06:39:41.433Z,-1.17
2017-01-05T06:40:40.490Z,-1.15
2017-01-05T06:41:41.339Z,-1.08
2017-01-05T06:42:41.785Z,-1.09
2017-01-05T06:43:41.123Z,-1.19
2017-01-05T06:44:41.379Z,-1.17
2017-01-05T06:45:42.389Z,-1.23
2017-01-05T06:46:40.714Z,-1.22
2017-01-05T06:47:40.958Z,-1.25
2017-01-05T06:48:41.227Z,-1.26
2017-01-05T06:49:41.305Z,-1.3
2017-01-05T06:50:40.716Z,-1.32
2017-01-05T06:51:41.153Z,-1.4
2017-01-05T06:52:41.629Z,-1.4
2017-01-05T06:53:42.922Z,-1.4
2017-01-05T06:54:42.024Z,-1.37
2017-01-05T06:55:41.180Z,-1.33
2017-01-05T06:56:42.074Z,-1.46
2017-01-05T06:57:43.008Z,-1.47
2017-01-05T06:58:41.625Z,-1.46
2017-01-05T06:59:41.535Z,-1.54
2017-01-05T07:00:41.340Z,-1.56
2017-01-05T07:01:41.801Z,-1.8
2017-01-05T07:02:42.322Z,-1.86
2017-01-05T07:03:41.549Z,-1.77
2017-01-05T07:04:41.487Z,-1.87
2017-01-05T07:05:41.231Z,-1.94
2017-01-05T07:06:41.950Z,-1.89
2017-01-05T07:07:41.424Z,-1.87
2017-01-05T07:08:42.265Z,-1.84
2017-01-05T07:09:41.136Z,-1.87
2017-01-05T07:10:42.599Z,-1.83
2017-01-05T07:11:44.280Z,-1.87
2017-01-05T07:12:43.836Z,-1.74
2017-01-05T07:13:42.569Z,-1.76
2017-01-05T07:14:42.010Z,-1.76
2017-01-05T07:15:43.339Z,-1.83
2017-01-05T07:16:42.189Z,-1.84
2017-01-05T07:18:42.275Z,-1.89
2017-01-05T07:19:43.726Z,-1.9
2017-01-05T07:20:41.749Z,-1.87
2017-01-05T07:21:41.284Z,-1.87
2017-01-05T07:22:42.531Z,-1.97
2017-01-05T07:23:43.760Z,-2.04
2017-01-05T07:26:41.293Z,-2.05
2017-01-05T07:27:42.675Z,-2.08
2017-01-05T07:28:42.245Z,-2.07
2017-01-05T07:29:42.233Z,-1.87
2017-01-05T07:30:42.796Z,-1.98
2017-01-05T07:31:44.265Z,-1.95
2017-01-05T07:32:42.748Z,-1.98
2017-01-05T07:33:41.447Z,-1.98
2017-01-05T07:34:42.414Z,-2.07
2017-01-05T07:35:42.228Z,-2.08
2017-01-05T07:36:44.449Z,-2.05
2017-01-05T07:37:41.617Z,-2.08
2017-01-05T07:38:42.878Z,-2.1
2017-01-05T07:39:43.277Z,-1.97
2017-01-05T07:40:43.520Z,-1.94
2017-01-05T07:41:42.108Z,-1.98
2017-01-05T07:42:43.036Z,-1.94
2017-01-05T07:43:41.712Z,-1.98
2017-01-05T07:44:41.691Z,-1.92
2017-01-05T07:45:41.803Z,-1.98
2017-01-05T07:46:41.519Z,-1.94
2017-01-05T07:47:41.816Z,-2
2017-01-05T07:48:41.937Z,-1.97
2017-01-05T07:49:41.397Z,-1.98
2017-01-05T07:50:41.990Z,-2.04
2017-01-05T07:51:41.707Z,-2.08
2017-01-05T07:52:41.971Z,-2.12
2017-01-05T07:53:42.846Z,-1.97
2017-01-05T07:54:41.576Z,-2.01
2017-01-05T07:55:41.195Z,-2.05
2017-01-05T07:56:41.938Z,-2.07
2017-01-05T07:57:42.467Z,-2.12
2017-01-05T07:58:41.939Z,-2.07
2017-01-05T07:59:41.522Z,-2.04
2017-01-05T08:00:42.136Z,-1.92
2017-01-05T08:01:41.511Z,-2.04
2017-01-05T08:02:41.410Z,-2
2017-01-05T08:03:41.884Z,-1.98
2017-01-05T08:04:42.316Z,-2.16
2017-01-05T08:05:41.722Z,-2.1
2017-01-05T08:06:42.485Z,-2.22
2017-01-05T08:07:41.909Z,-2.1
2017-01-05T08:08:41.877Z,-2.07
2017-01-05T08:09:42.342Z,-2.15
2017-01-05T08:10:41.914Z,-2.08
2017-01-05T08:11:42.456Z,-2.1
2017-01-05T08:12:42.010Z,-2.04
2017-01-05T08:13:42.168Z,-1.92
2017-01-05T08:14:41.757Z,-2
2017-01-05T08:15:41.815Z,-2.07
2017-01-05T08:16:42.078Z,-1.92
2017-01-05T08:17:42.096Z,-1.9
2017-01-05T08:18:43.468Z,-2.04
2017-01-05T08:19:41.798Z,-1.97
2017-01-05T08:20:41.671Z,-1.83
2017-01-05T08:21:41.734Z,-1.76
2017-01-05T08:22:41.910Z,-1.87
2017-01-05T08:23:42.287Z,-1.82
2017-01-05T08:24:41.665Z,-1.86
2017-01-05T08:25:42.072Z,-1.74
2017-01-05T08:26:42.253Z,-1.84
2017-01-05T08:27:41.760Z,-1.94
2017-01-05T08:28:41.802Z,-1.79
2017-01-05T08:29:41.741Z,-1.68
2017-01-05T08:30:41.978Z,-1.68
2017-01-05T08:31:42.889Z,-1.74
2017-01-05T08:32:41.890Z,-1.62
2017-01-05T08:33:42.248Z,-1.58
2017-01-05T08:34:42.386Z,-1.68
2017-01-05T08:35:42.041Z,-1.69
2017-01-05T08:36:42.107Z,-1.59
2017-01-05T08:37:41.851Z,-1.53
2017-01-05T08:38:41.818Z,-1.47
2017-01-05T08:39:42.866Z,-1.47
2017-01-05T08:40:42.343Z,-1.35
2017-01-05T08:41:42.246Z,-1.41
2017-01-05T08:42:42.228Z,-1.35
2017-01-05T08:43:42.493Z,-1.37
2017-01-05T08:44:42.704Z,-1.29
2017-01-05T08:45:42.622Z,-1.22
2017-01-05T08:46:42.860Z,-1.2
2017-01-05T08:47:42.571Z,-1.2
2017-01-05T08:48:42.771Z,-1.07
2017-01-05T08:49:42.842Z,-1.17
2017-01-05T08:50:43.256Z,-1.11
2017-01-05T08:51:42.766Z,-1.11
2017-01-05T08:52:43.264Z,-1.14
2017-01-05T08:53:42.538Z,-1.08
2017-01-05T08:54:42.524Z,-1.05
2017-01-05T08:55:42.011Z,-1.14
2017-01-05T08:56:42.347Z,-1.11
2017-01-05T08:57:41.921Z,-1.22
2017-01-05T08:58:41.893Z,-1.26
2017-01-05T08:59:42.831Z,-1.38
2017-01-05T09:00:42.630Z,-1.38
2017-01-05T09:01:42.465Z,-1.37
2017-01-05T09:02:42.045Z,-1.25
2017-01-05T09:03:42.230Z,-1.11
2017-01-05T09:04:42.420Z,-1.17
2017-01-05T09:05:42.594Z,-1.12
2017-01-05T09:06:42.398Z,-1.09
2017-01-05T09:07:42.279Z,-1.11
2017-01-05T09:08:42.893Z,-1.04
2017-01-05T09:09:43.016Z,-1.05
2017-01-05T09:10:42.999Z,-1.04
2017-01-05T09:11:42.495Z,-1.07
2017-01-05T09:12:42.311Z,-1.07
2017-01-05T09:13:42.889Z,-1.05
2017-01-05T09:14:43.276Z,-1.09
2017-01-05T09:15:42.680Z,-0.91
2017-01-05T09:16:43.492Z,-1.01
2017-01-05T09:17:42.909Z,-1.05
2017-01-05T09:18:42.711Z,-1.01
2017-01-05T09:19:42.594Z,-0.89
2017-01-05T09:20:42.760Z,-0.83
2017-01-05T09:21:42.441Z,-0.83
2017-01-05T09:22:42.310Z,-0.75
2017-01-05T09:23:43.395Z,-0.72
2017-01-05T09:24:42.989Z,-0.53
2017-01-05T09:25:43.076Z,-0.43
2017-01-05T09:26:42.586Z,-0.26
2017-01-05T09:27:43.816Z,-0.26
2017-01-05T09:28:42.527Z,-0.43
2017-01-05T09:29:42.948Z,-0.44
2017-01-05T09:30:43.195Z,-0.47
2017-01-05T09:31:42.464Z,-0.56
2017-01-05T09:32:42.836Z,-0.54
2017-01-05T09:33:43.072Z,-0.62
2017-01-05T09:34:43.084Z,-0.57
2017-01-05T09:35:43.183Z,-0.65
2017-01-05T09:36:42.812Z,-0.56
2017-01-05T09:37:42.916Z,-0.53
2017-01-05T09:38:42.626Z,-0.52
2017-01-05T09:39:42.930Z,-0.49
2017-01-05T09:40:43.057Z,-0.5
2017-01-05T09:41:43.280Z,-0.36
2017-01-05T09:42:43.044Z,-0.23
2017-01-05T09:43:42.720Z,-0.31
2017-01-05T09:44:42.832Z,-0.41
2017-01-05T09:45:43.271Z,-0.31
2017-01-05T09:46:42.727Z,-0.02
2017-01-05T09:47:43.607Z,0.28
2017-01-05T09:48:43.766Z,0.73
2017-01-05T09:49:43.581Z,1.01
2017-01-05T09:50:42.785Z,1.14
2017-01-05T09:51:43.544Z,1.2
2017-01-05T09:52:42.905Z,1.13
2017-01-05T09:53:43.317Z,1.12
2017-01-05T09:54:42.700Z,1.19
2017-01-05T09:55:43.399Z,1.17
2017-01-05T09:56:42.841Z,1.2
2017-01-05T09:57:43.361Z,1.31
2017-01-05T09:58:43.051Z,1.05
2017-01-05T09:59:42.887Z,1.17
2017-01-05T10:00:43.182Z,0.91
2017-01-05T10:01:43.536Z,0.78
2017-01-05T10:02:42.951Z,0.62
2017-01-05T10:03:42.732Z,0.73
2017-01-05T10:04:42.747Z,0.65
2017-01-05T10:05:43.058Z,0.65
2017-01-05T10:06:43.286Z,0.62
2017-01-05T10:07:42.816Z,0.47
2017-01-05T10:08:43.094Z,0.46
2017-01-05T10:09:43.363Z,0.32
2017-01-05T10:10:43.561Z,0.29
2017-01-05T10:11:42.901Z,0.31
2017-01-05T10:12:43.646Z,0.43
2017-01-05T10:13:42.979Z,0.47
2017-01-05T10:14:43.401Z,0.52
2017-01-05T10:15:43.075Z,0.56
2017-01-05T10:16:43.505Z,0.7
2017-01-05T10:17:43.002Z,0.88
2017-01-05T10:18:43.324Z,1.3
2017-01-05T10:19:43.300Z,1.41
2017-01-05T10:20:42.898Z,1.56
2017-01-05T10:21:44.013Z,1.68
2017-01-05T10:22:43.342Z,1.91
2017-01-05T10:23:43.619Z,2.08
2017-01-05T10:24:43.359Z,2.15
2017-01-05T10:25:43.672Z,2.07
2017-01-05T10:26:43.211Z,2.13
2017-01-05T10:27:43.281Z,2
2017-01-05T10:28:44.213Z,2.22
2017-01-05T10:29:43.284Z,1.88
2017-01-05T10:30:43.231Z,1.84
2017-01-05T10:31:43.322Z,1.71
2017-01-05T10:32:43.307Z,1.55
2017-01-05T10:33:43.363Z,1.44
2017-01-05T10:34:44.195Z,1.24
2017-01-05T10:35:44.114Z,0.91
2017-01-05T10:36:43.418Z,0.83
2017-01-05T10:37:43.269Z,0.84
2017-01-05T10:38:43.385Z,0.78
2017-01-05T10:39:43.647Z,0.69
2017-01-05T10:40:43.413Z,0.66
2017-01-05T10:41:43.915Z,0.66
2017-01-05T10:42:43.687Z,0.6
2017-01-05T10:43:43.701Z,0.62
2017-01-05T10:44:43.767Z,0.5
2017-01-05T10:45:43.250Z,0.47
2017-01-05T10:46:43.761Z,0.4
2017-01-05T10:47:43.779Z,0.25
2017-01-05T10:48:44.651Z,0.19
2017-01-05T10:49:44.081Z,0.25
2017-01-05T10:50:43.571Z,0.28
2017-01-05T10:51:44.312Z,0.23
2017-01-05T10:52:43.993Z,0.18
2017-01-05T10:53:43.516Z,0.11
2017-01-05T10:54:43.692Z,0.08
2017-01-05T10:55:44.022Z,0.12
2017-01-05T10:56:43.676Z,0.21
2017-01-05T10:57:44.266Z,0.32
2017-01-05T10:58:43.752Z,0.46
2017-01-05T10:59:43.530Z,0.5
2017-01-05T11:00:44.463Z,0.63
2017-01-05T11:01:43.785Z,0.78
2017-01-05T11:02:44.323Z,0.91
2017-01-05T11:03:43.957Z,0.86
2017-01-05T11:04:44.249Z,0.86
2017-01-05T11:05:44.343Z,0.81
2017-01-05T11:06:43.897Z,0.92
2017-01-05T11:07:43.607Z,0.95
2017-01-05T11:08:43.959Z,1.02
2017-01-05T11:09:44.362Z,1.14
2017-01-05T11:10:44.852Z,1.37
2017-01-05T11:11:44.263Z,1.34
2017-01-05T11:12:43.690Z,1.37
2017-01-05T11:13:44.093Z,1.5
2017-01-05T11:14:43.988Z,1.4
2017-01-05T11:15:43.783Z,1.32
2017-01-05T11:16:43.741Z,1.14
2017-01-05T11:17:43.744Z,1.19
2017-01-05T11:18:43.843Z,1.02
2017-01-05T11:19:44.293Z,0.95
2017-01-05T11:20:44.184Z,0.81
2017-01-05T11:21:44.542Z,0.74
2017-01-05T11:22:44.346Z,0.6
2017-01-05T11:23:44.311Z,0.65
2017-01-05T11:24:44.032Z,0.59
2017-01-05T11:25:44.220Z,0.43
2017-01-05T11:26:44.163Z,0.46
2017-01-05T11:27:44.704Z,0.58
2017-01-05T11:28:43.822Z,0.63
2017-01-05T11:29:43.927Z,0.55
2017-01-05T11:30:45.481Z,0.63
2017-01-05T11:31:44.477Z,0.6
2017-01-05T11:32:43.963Z,0.69
2017-01-05T11:33:45.210Z,0.65
2017-01-05T11:34:43.807Z,0.7
2017-01-05T11:35:44.635Z,0.69
2017-01-05T11:36:44.455Z,0.69
2017-01-05T11:37:44.570Z,0.63
2017-01-05T11:38:44.869Z,0.73
2017-01-05T11:39:44.440Z,0.59
2017-01-05T11:40:44.335Z,0.55
2017-01-05T11:41:43.931Z,0.47
2017-01-05T11:42:43.969Z,0.18
2017-01-05T11:43:43.952Z,0.08
2017-01-05T11:44:45.169Z,-0.02
2017-01-05T11:45:45.484Z,-0.17
2017-01-05T11:46:44.520Z,-0.18
2017-01-05T11:47:44.313Z,-0.23
2017-01-05T11:48:44.143Z,-0.34
2017-01-05T11:49:44.413Z,-0.29
2017-01-05T11:50:45.061Z,-0.44
2017-01-05T11:51:44.230Z,-0.39
2017-01-05T11:52:45.183Z,-0.41
2017-01-05T11:53:44.175Z,-0.39
2017-01-05T11:54:44.050Z,-0.49
2017-01-05T11:55:45.011Z,-0.44
2017-01-05T11:56:45.274Z,-0.67
2017-01-05T11:57:45.180Z,-0.7
2017-01-05T11:58:45.212Z,-0.7
2017-01-05T11:59:45.315Z,-0.67
2017-01-05T12:00:44.313Z,-0.72
2017-01-05T12:01:44.264Z,-0.75
2017-01-05T12:02:44.555Z,-0.67
2017-01-05T12:03:45.014Z,-0.62
2017-01-05T12:04:44.357Z,-0.62
2017-01-05T12:05:44.855Z,-0.61
2017-01-05T12:06:46.063Z,-0.57
2017-01-05T12:07:44.908Z,-0.38
2017-01-05T12:08:44.998Z,-0.25
2017-01-05T12:09:45.418Z,-0.06
2017-01-05T12:10:44.401Z,0.15
2017-01-05T12:11:45.475Z,0.36
2017-01-05T12:12:45.228Z,0.43
2017-01-05T12:13:45.146Z,0.56
2017-01-05T12:14:45.227Z,0.74
2017-01-05T12:15:44.371Z,0.99
2017-01-05T12:16:45.096Z,1.49
2017-01-05T12:17:45.279Z,1.73
2017-01-05T12:18:45.453Z,1.67
2017-01-05T12:19:45.568Z,1.55
2017-01-05T12:20:44.842Z,1.32
2017-01-05T12:21:45.582Z,1.19
2017-01-05T12:22:45.565Z,1.13
2017-01-05T12:23:45.419Z,1.1
2017-01-05T12:24:45.042Z,0.99
2017-01-05T12:25:44.702Z,0.98
2017-01-05T12:26:45.121Z,0.95
2017-01-05T12:27:44.699Z,0.65
2017-01-05T12:28:44.714Z,0.69
2017-01-05T12:29:45.048Z,0.69
2017-01-05T12:30:44.462Z,0.59
2017-01-05T12:31:44.758Z,0.47
2017-01-05T12:32:44.693Z,0.46
2017-01-05T12:33:46.154Z,0.32
2017-01-05T12:34:44.744Z,0.15
2017-01-05T12:35:45.002Z,0.1
2017-01-05T12:36:45.328Z,-0.02
2017-01-05T12:37:45.780Z,-0.03
2017-01-05T12:38:45.874Z,-0.11
2017-01-05T12:39:44.695Z,0.01
2017-01-05T12:40:45.064Z,-0.18
2017-01-05T12:41:45.054Z,-0.17
2017-01-05T12:42:44.795Z,-0.2
2017-01-05T12:43:45.485Z,-0.15
2017-01-05T12:44:44.712Z,-0.31
2017-01-05T12:45:45.395Z,-0.36
2017-01-05T12:46:45.024Z,-0.41
2017-01-05T12:47:46.065Z,-0.41
2017-01-05T12:48:44.917Z,-0.38
2017-01-05T12:49:44.992Z,-0.36
2017-01-05T12:50:44.957Z,-0.14
2017-01-05T12:51:45.352Z,0.19
2017-01-05T12:52:45.539Z,0.7
2017-01-05T12:53:45.018Z,1.16
2017-01-05T12:54:46.059Z,1.63
2017-01-05T12:55:45.092Z,1.77
2017-01-05T12:56:44.919Z,2.22
2017-01-05T12:57:45.241Z,2.46
2017-01-05T12:58:44.967Z,2.57
2017-01-05T12:59:45.512Z,2.67
2017-01-05T13:00:45.164Z,2.42
2017-01-05T13:01:45.548Z,2.2
2017-01-05T13:02:44.836Z,2.13
2017-01-05T13:03:45.751Z,1.81
2017-01-05T13:04:44.945Z,1.53
2017-01-05T13:05:44.885Z,1.24
2017-01-05T13:06:45.129Z,1.17
2017-01-05T13:07:45.946Z,1.08
2017-01-05T13:08:45.444Z,0.94